Airfield :
LOGIN :

Register | Disclaimer

   EN    FR    IT 

 










Legend :    VFR   Marginal VFR   IFR   Intensive IFR   Very Intensive IFR
Visi :
Ceiling :
>= 8 km
>= 3000ft
5 to 8 km
1000 to 3000 ft
1500m to 5 km
500 to 1000 ft
800 to 1500m
200 to 500 ft
< 800m
< 200 ft
Symbols :   Thunderstorms  Fog  Heavy snow  Heavy precipitations  Wind > 20 kt
SIGMETs :     Misc.  Thunderstorms  Icing  Turbulence  Mountain Waves  Volcanic Ashes






- Airport Elevation : 352 ft
- IATA code : ARW


LRAR - Arad International

CURRENT METAR :
  • 021330Z VRB02KT 7000 BKN039 06/03 Q1022

EXPIRED METARs :
  • 021300Z VRB02KT 8000 BKN039 06/03 Q1022
  • 021230Z 00000KT 9999 BKN041 06/03 Q1022
  • 021200Z 00000KT 7000 BKN037 06/03 Q1022
  • 021130Z VRB01KT 7000 BKN038 06/03 Q1022
  • 021100Z VRB02KT 7000 BKN040 06/03 Q1022

TAF TAF LRAR
Valid from the 02 at 12:00 until the 02 at 21:00 UTC


021100Z 0212/0221 VRB03KT 5000 BR BKN040
TEMPO 0212/0215 7000 NSW
BECMG 0215/0217 3000 BR BKN010
BECMG 0217/0219 0800 FG BKN002
BECMG 0219/0221 0350 FG VV001



MET'MAP, your aeronautical weather chart ! - Copyright ORBIFLY December 2007 - Disclaimer

ORBIFLY MET'MAP TEAM :

Programming & Development : Alexandra Zaïnal
Original concept : Baudouin d'Aumeries
Technical & hardware support : Manuel Goepfert
Assistance : Marc-Olivier Méhu




SOURCES & CREDITS :

   NOAA